Portada
METAR-TAF:

METAR-TAF

Aeroports :

Abadan, Iran

latitud: 30-22N, longitud: 048-15E, altitud: 3 m

Observació

L'informe es va fer fa 55 minuts, a les 07:00 UTC
Vent 14 kt del Nord-Oest
Temperatura 35°C
Humitat 20%
Pressió 1008 hPa
Visibilitat 10 km o més
sense núvols per sota de 1500 mi sense presència de cumulonimbus.

METAR: OIAA 080700Z 32014KT CAVOK 35/09 Q1008

Hora: 12:25 (07:55 UTC)

Pronòstic

L'informe es va fer fa 2 hores i 25 minuts, a les 05:30 UTC
Pronòstic vàlid del 08 a les 06 UTC al 09 a les 12 UTC
Vent 14 kt del Nord/Nord-Oest
Visibilitat: 7000 m
Temporalment
l' 08 a les 09 UTC al 08 a les 15 UTC
Visibilitat: 5000 m
Pols estès

TAF: OIAA 080530Z 0806/0912 33014KT 7000 NSC TEMPO 0809/0815 5000 DU

Observacions i pronòstics meteorològics de més de 4000 aeroports (METAR i TAF).

Les estacions disponibles són els punts grocs i vermells al mapa.

Posi el ratolí al punt desitjat per veure el nom de l'estació.

Feu clic per veure les observacions i els pronòstics meteorològics.

Per canviar el mapa: feu clic els botons verds amb una creu de color negre per apropar; al botó verd amb un guió per allunyar la imatge; o en les fletxes verdes per a mapes adjacents.


METAR-TAF: